WetterOnline ( https://www.wetteronline.ch )

Wetter aktuell Leck

Aktuelles Wetter: Leck (17m)

6-stündlich | Neueste Meldungen
Ortszeit Temperatur Wetter
So, 07.06. 2:00 9.0° C wolkig
Sa, 06.06. 20:00 9.6° C leichter Regen
Sa, 06.06. 14:00 13.1° C wolkig
Sa, 06.06. 8:00 10.3° C bewölkt
Sa, 06.06. 2:00 9.0° C bewölkt
Fr, 05.06. 20:00 10.2° C Regen
Fr, 05.06. 14:00 14.6° C leicht bewölkt
Fr, 05.06. 8:00 10.9° C leicht bewölkt
Ortszeit Temperatur Wetter
So, 07.06. 7:00 11.5° C wolkig
So, 07.06. 6:50 11.5° C bewölkt
So, 07.06. 6:40 11.1° C bewölkt
So, 07.06. 6:30 10.3° C wolkig
So, 07.06. 6:20 10.3° C wolkig
So, 07.06. 6:10 10.2° C leicht bewölkt
So, 07.06. 6:00 9.5° C fast wolkenlos
So, 07.06. 5:30 9.3° C bewölkt
So, 07.06. 5:00 7.8° C wolkig
So, 07.06. 4:30 7.6° C wolkenlos
So, 07.06. 4:00 7.8° C leicht bewölkt
Ortszeit Relative Feuchte Sichtweite
So, 07.06. 2:00 87% 35 km
Sa, 06.06. 20:00 86% 14 km
Sa, 06.06. 14:00 62% 40 km
Sa, 06.06. 8:00 75% 45 km
Sa, 06.06. 2:00 83% 50 km
Fr, 05.06. 20:00 90% 8 km
Fr, 05.06. 14:00 57% >70 km
Fr, 05.06. 8:00 74% 55 km
Ortszeit Relative Feuchte Sichtweite
So, 07.06. 7:00 72% 50 km
So, 07.06. 6:50 72% -
So, 07.06. 6:40 75% -
So, 07.06. 6:30 74% 40 km
So, 07.06. 6:20 74% -
So, 07.06. 6:10 75% -
So, 07.06. 6:00 77% 40 km
So, 07.06. 5:30 81% 40 km
So, 07.06. 5:00 90% 27 km
So, 07.06. 4:30 92% 24 km
So, 07.06. 4:00 92% 26 km
Ortszeit Niederschlagsmenge Niederschlagsart
So, 07.06. 2:00 0.1 l/m2 in 6 Std. Regen
Sa, 06.06. 20:00 0.3 l/m2 in 12 Std. Regen
Sa, 06.06. 14:00 0.1 l/m2 in 6 Std. Regen
Sa, 06.06. 8:00 9 l/m2 in 12 Std. Regen
Sa, 06.06. 2:00 6 l/m2 in 6 Std. Regen
Fr, 05.06. 20:00 4 l/m2 in 12 Std. Regen
Fr, 05.06. 14:00 0.1 l/m2 in 6 Std. Regen
Fr, 05.06. 8:00 1 l/m2 in 12 Std. Regen
Ortszeit Niederschlagsmenge Niederschlagsart
So, 07.06. 7:00 0.0 l/m2 in 1 Std. -
So, 07.06. 6:50 keine Meldung -
So, 07.06. 6:40 keine Meldung -
So, 07.06. 6:30 0.0 l/m2 in 1 Std. -
So, 07.06. 6:20 keine Meldung -
So, 07.06. 6:10 keine Meldung -
So, 07.06. 6:00 0.0 l/m2 in 1 Std. -
So, 07.06. 5:30 0.0 l/m2 in 1 Std. -
So, 07.06. 5:00 0.0 l/m2 in 1 Std. -
So, 07.06. 4:30 0.0 l/m2 in 1 Std. -
So, 07.06. 4:00 0.0 l/m2 in 1 Std. -
Ortszeit Stärke Spitze Richtung
km/h Bft. km/h Grad Sektor
So, 07.06. 2:00 6 1 28 110° O
Sa, 06.06. 20:00 20 4 56 240° SW
Sa, 06.06. 14:00 41 6 56 220° SW
Sa, 06.06. 8:00 15 3 50 240° SW
Sa, 06.06. 2:00 17 3 43 270° W
Fr, 05.06. 20:00 22 4 43 140° SO
Fr, 05.06. 14:00 25 4 40 210° SW
Fr, 05.06. 8:00 19 3 37 250° W
Ortszeit Stärke Spitze Richtung
km/h Bft. km/h Grad Sektor
So, 07.06. 7:00 14 3 22 170° S
So, 07.06. 6:50 14 3 - 170° S
So, 07.06. 6:40 14 3 - 170° S
So, 07.06. 6:30 13 3 19 170° S
So, 07.06. 6:20 13 3 - 170° S
So, 07.06. 6:10 11 2 - 170° S
So, 07.06. 6:00 11 2 18 160° S
So, 07.06. 5:30 11 2 18 160° S
So, 07.06. 5:00 9 2 13 150° SO
So, 07.06. 4:30 9 2 13 140° SO
So, 07.06. 4:00 7 2 9 120° SO
Ortszeit Untergrenze Bedeckung Gattung
total tief tief mittel hoch
So, 07.06. 2:00 2400 m 8/8 2/8 - - -
Sa, 06.06. 20:00 900 m 8/8 8/8 - - -
Sa, 06.06. 14:00 960 m 7/8 5/8 - - -
Sa, 06.06. 8:00 600 m 7/8 7/8 - - -
Sa, 06.06. 2:00 870 m 8/8 4/8 - - -
Fr, 05.06. 20:00 1260 m 8/8 8/8 - - -
Fr, 05.06. 14:00 1020 m 5/8 1/8 - - -
Fr, 05.06. 8:00 690 m 3/8 6/8 - - -
Ortszeit Bedeckungsgrad in Achtel und Wolkenuntergrenze
So, 07.06. 7:00 7(1200m)
So, 07.06. 6:50 7(1200m)
So, 07.06. 6:40 6(1170m) 7(2400m)
So, 07.06. 6:30 4(1200m) 5(2400m)
So, 07.06. 6:20 4(1200m) 5(2400m)
So, 07.06. 6:10 4(1200m)
So, 07.06. 6:00 1(1800m)
So, 07.06. 5:30 6(1440m) 7(1500m) 7(3000m)
So, 07.06. 5:00 4(3000m) 6(3000m)
So, 07.06. 4:30 keine Wolken
So, 07.06. 4:00 4(3000m)
Ortszeit Luftdruck NN (hPa) Tendenz (hPa in 3 Std.)
So, 07.06. 2:00 1000 0,0
Sa, 06.06. 20:00 1000 + 1,8
Sa, 06.06. 14:00 997 + 2,3
Sa, 06.06. 8:00 993 + 1,3
Sa, 06.06. 2:00 990 + 2,2
Fr, 05.06. 20:00 988 - 1,7
Fr, 05.06. 14:00 992 - 0,1
Fr, 05.06. 8:00 991 + 0,7
Ortszeit Luftdruck NN (hPa) Tendenz (hPa in 3 Std.)
So, 07.06. 7:00 1001 + 0,6
So, 07.06. 6:50 1001 keine Meldung
So, 07.06. 6:40 1001 keine Meldung
So, 07.06. 6:30 1001 + 0,6
So, 07.06. 6:20 1001 keine Meldung
So, 07.06. 6:10 1001 keine Meldung
So, 07.06. 6:00 1001 + 0,4
So, 07.06. 5:30 1000 + 0,1
So, 07.06. 5:00 1000 - 0,2
So, 07.06. 4:30 1000 - 0,2
So, 07.06. 4:00 1000 - 0,3
Ortszeit Schneehöhe (cm)
So, 07.06. 2:00 -
Sa, 06.06. 20:00 -
Sa, 06.06. 14:00 -
Sa, 06.06. 8:00 -
Sa, 06.06. 2:00 -
Fr, 05.06. 20:00 -
Fr, 05.06. 14:00 -
Fr, 05.06. 8:00 -
Ortszeit Schneehöhe (cm)
So, 07.06. 7:00 -
So, 07.06. 6:50 -
So, 07.06. 6:40 -
So, 07.06. 6:30 -
So, 07.06. 6:20 -
So, 07.06. 6:10 -
So, 07.06. 6:00 -
So, 07.06. 5:30 -
So, 07.06. 5:00 -
So, 07.06. 4:30 -
So, 07.06. 4:00 -
Link zu dieser Seite / Seite empfehlen

Das Wetter in ...